Andrews, SC

12:07 PM EDT on October 01, 2014 (GMT -0400)
Moncks Corner | Change Station
CLOSE
Current Station
Airport
Location: Moncks Corner,
Elevation: 72 ft
Nearby Weather Stations

Elev 72 ft 33.19 °N, 80.04 °W | Updated 12 minutes ago

Clear
Clear
79 °F
Feels Like 79 °F
N
5
Wind Variable Wind from North

Today
High -- | Low -- °F
--% Chance of Precip.
Yesterday
High -- | Low -- °F
Precip. -- in
7:12 AM 7:02 PM
Waxing Crescent, 48% visible
Pressure 30.01 in
Visibility 10.0 miles
Clouds Clear
Dew Point 68 °F
Humidity 69%
Rainfall 0.00 in
Snow Depth Not available.
UV 7 out of 12
Pollen 5.60 out of 12
Air Quality Not available.
Flu Activity Not available.
METAR KMKS 011555Z AUTO 36004KT 10SM CLR 26/20 A3001 RMK AO2

More Conditions Fewer Conditions

Pressure 30.01 in
Visibility 10.0 miles
Clouds Clear
Dew Point 68 °F
Humidity 69%
Rainfall 0.00 in
Snow Depth Not available.
UV 7 out of 12
Pollen 5.60 out of 12
Air Quality Not available.
Flu Activity Not available.
METAR KMKS 011555Z AUTO 36004KT 10SM CLR 26/20 A3001 RMK AO2

More Conditions Fewer Conditions

10-Day Weather Forecast

Almanac

Astronomy

Oct. 01, 2014 Rise Set
Actual Time 7:12 AM EDT 7:02 PM EDT
Civil Twilight 6:47 AM EDT 7:27 PM EDT
Nautical Twilight 6:18 AM EDT 7:56 PM EDT
Astronomical Twilight 5:49 AM EDT 8:25 PM EDT
Moon 1:59 PM EDT No Moon Set
Length of Visible Light 12h 39m
Length of Day
11h 50m
Tomorrow will be 2m 2s shorter.
Waxing Crescent, 48% of the Moon is Illuminated
Today
Waxing Crescent
Oct 1
First Quarter
Oct 8
Full
Oct 15
Last Quarter
Oct 23
New

Today's Extremes

State Highs State Lows

Community

WunderPhotos

Upload Photos

1,757,968 photos uploaded!

WunderBlogs® & News

Nearby

Snow Depth

Station Depth Elevation
No new snow has been reported.

Earthquake Activity

City Distance Mag. Time & Date
No recent earthquake activity has been reported nearby.
Minimum magnitude displayed is 2.5.

Coastal Water Temperatures

Place Temperature
Springmaid Pier, SC 75.0 °F

Nearby Weather Stations